Time;durP1;ratioP1;P1;durP2;ratioP2;P2;SDS_P1;SDS_P2;PMS_P1;PMS_P2;Temp;Humidity;BMP_temperature;BMP_pressure;BME280_temperature;BME280_humidity;BME280_pressure;Samples;Min_cycle;Max_cycle;Signal;HPM_P1;HPM_P2
2023/08/07 00:00:58;;;;;;;6.28;3.55;;;15.10;99.90;;;;;;4895369;29;20045;-63
2023/08/07 00:03:23;;;;;;;6.38;3.70;;;15.10;99.90;;;;;;4895068;29;20041;-62
2023/08/07 00:05:51;;;;;;;5.82;3.42;;;15.10;99.90;;;;;;4895002;29;20135;-62
2023/08/07 00:08:17;;;;;;;7.75;3.50;;;15.10;99.90;;;;;;4894968;29;20168;-62
2023/08/07 00:10:42;;;;;;;7.50;3.15;;;15.10;99.90;;;;;;4894761;29;20124;-62
2023/08/07 00:13:08;;;;;;;6.50;3.40;;;15.10;99.90;;;;;;4894863;29;20060;-63
2023/08/07 00:15:34;;;;;;;7.63;3.33;;;15.10;99.90;;;;;;4893374;29;20040;-63
2023/08/07 00:18:00;;;;;;;6.05;3.13;;;15.10;99.90;;;;;;4895452;29;20156;-60
2023/08/07 00:20:25;;;;;;;7.75;3.30;;;15.10;99.90;;;;;;4895076;29;20048;-63
2023/08/07 00:22:51;;;;;;;8.40;3.38;;;15.40;99.90;;;;;;4894624;29;20605;-62
2023/08/07 00:25:17;;;;;;;6.38;3.05;;;15.20;99.90;;;;;;4894853;29;20052;-58
2023/08/07 00:27:42;;;;;;;7.30;3.00;;;15.10;99.90;;;;;;4895473;29;20076;-62
2023/08/07 00:30:08;;;;;;;6.47;2.95;;;15.20;99.90;;;;;;4893747;29;20055;-62
2023/08/07 00:32:34;;;;;;;6.45;3.00;;;15.10;99.90;;;;;;4892830;29;20072;-62
2023/08/07 00:35:00;;;;;;;5.43;3.20;;;15.10;99.90;;;;;;4876508;29;20132;-62
2023/08/07 00:37:25;;;;;;;7.20;3.65;;;15.10;99.90;;;;;;4876536;29;20064;-60
2023/08/07 00:39:51;;;;;;;6.03;3.35;;;15.10;99.90;;;;;;4875791;29;20121;-58
2023/08/07 00:42:16;;;;;;;6.65;2.90;;;15.20;99.90;;;;;;4876196;29;20049;-63
2023/08/07 00:44:42;;;;;;;7.13;3.00;;;15.20;99.90;;;;;;4875155;29;20620;-62
2023/08/07 00:47:07;;;;;;;4.55;3.10;;;15.10;99.90;;;;;;4875826;29;20048;-60
2023/08/07 00:49:34;;;;;;;8.75;3.55;;;15.20;99.90;;;;;;4875842;29;20041;-64
2023/08/07 00:52:00;;;;;;;6.60;3.13;;;15.20;99.90;;;;;;4876291;29;20049;-62
2023/08/07 00:54:26;;;;;;;5.95;3.65;;;15.20;99.90;;;;;;4875700;29;20220;-64
2023/08/07 00:56:52;;;;;;;7.25;4.05;;;15.20;99.90;;;;;;4889239;29;20048;-63
2023/08/07 00:59:18;;;;;;;6.78;3.85;;;15.40;99.90;;;;;;4893962;29;20045;-64
2023/08/07 01:01:45;;;;;;;6.00;3.65;;;15.30;99.90;;;;;;4894424;29;20129;-64
2023/08/07 01:04:11;;;;;;;7.47;3.75;;;15.20;99.90;;;;;;4893730;29;20040;-64
2023/08/07 01:06:36;;;;;;;6.13;3.45;;;15.20;99.90;;;;;;4894219;29;20166;-60
2023/08/07 01:09:02;;;;;;;5.10;2.90;;;15.10;99.90;;;;;;4894439;29;20129;-64
2023/08/07 01:11:48;;;;;;;7.10;2.90;;;15.10;99.90;;;;;;4894387;29;20104;-62
2023/08/07 01:14:13;;;;;;;5.43;3.35;;;15.10;99.90;;;;;;4892107;29;20048;-62
2023/08/07 01:16:48;;;;;;;7.85;3.60;;;15.10;99.90;;;;;;4894133;29;20087;-59
2023/08/07 01:19:28;;;;;;;6.35;3.63;;;15.20;99.90;;;;;;4893755;29;20084;-61
2023/08/07 01:22:14;;;;;;;9.77;4.75;;;15.10;99.90;;;;;;4893886;29;20128;-62
2023/08/07 01:24:42;;;;;;;7.75;3.70;;;15.10;99.90;;;;;;4893936;29;20037;-62
2023/08/07 01:27:28;;;;;;;7.43;3.40;;;15.20;99.90;;;;;;4893658;29;20527;-62
2023/08/07 01:30:09;;;;;;;5.57;3.25;;;15.20;99.90;;;;;;4893265;29;20037;-62
2023/08/07 01:32:56;;;;;;;6.95;3.05;;;15.20;99.90;;;;;;4888282;29;20103;-62
2023/08/07 01:35:26;;;;;;;6.93;3.40;;;15.20;99.90;;;;;;4888750;29;20060;-61
2023/08/07 01:37:55;;;;;;;5.95;3.25;;;15.20;99.90;;;;;;4893965;29;20049;-61
2023/08/07 01:40:22;;;;;;;6.63;3.85;;;15.10;99.90;;;;;;4893053;29;20096;-61
2023/08/07 01:42:49;;;;;;;5.03;3.97;;;15.00;99.90;;;;;;4890607;29;20059;-62
2023/08/07 01:45:25;;;;;;;5.43;3.63;;;15.00;99.90;;;;;;4892896;29;20088;-62
2023/08/07 01:47:52;;;;;;;6.18;3.78;;;15.00;99.90;;;;;;4888205;29;20461;-62
2023/08/07 01:50:21;;;;;;;8.48;3.85;;;15.00;99.90;;;;;;4874555;29;20642;-62
2023/08/07 01:52:47;;;;;;;6.70;4.00;;;14.90;99.90;;;;;;4874851;29;20112;-61
2023/08/07 01:55:17;;;;;;;5.70;4.00;;;15.00;99.90;;;;;;4875753;29;20044;-61
2023/08/07 01:57:43;;;;;;;6.43;3.75;;;15.00;99.90;;;;;;4889045;29;20095;-65
2023/08/07 02:00:10;;;;;;;5.13;3.38;;;15.00;99.90;;;;;;4874097;29;20124;-64
2023/08/07 02:02:38;;;;;;;5.20;3.40;;;15.00;99.90;;;;;;4874220;29;20053;-59
2023/08/07 02:05:05;;;;;;;7.55;3.30;;;15.00;99.90;;;;;;4874552;29;20052;-62
2023/08/07 02:07:31;;;;;;;6.95;3.55;;;14.90;99.90;;;;;;4874889;29;20078;-61
2023/08/07 02:09:57;;;;;;;6.75;3.47;;;15.00;99.90;;;;;;4874143;29;20407;-61
2023/08/07 02:12:23;;;;;;;7.22;3.92;;;15.00;99.90;;;;;;4874380;29;20370;-60
2023/08/07 02:14:48;;;;;;;8.25;3.42;;;15.00;99.90;;;;;;4873624;29;20078;-62
2023/08/07 02:17:14;;;;;;;8.57;3.45;;;14.90;99.90;;;;;;4873797;29;20714;-60
2023/08/07 02:19:40;;;;;;;6.95;3.50;;;14.90;99.90;;;;;;4874405;29;20096;-58
2023/08/07 02:22:05;;;;;;;7.40;3.40;;;15.00;99.90;;;;;;4874699;29;20056;-63
2023/08/07 02:24:31;;;;;;;5.70;3.22;;;15.00;99.90;;;;;;4874680;29;20453;-63
2023/08/07 02:26:57;;;;;;;7.22;3.35;;;14.90;99.90;;;;;;4873930;29;20052;-63
2023/08/07 02:29:23;;;;;;;9.73;3.00;;;14.90;99.90;;;;;;4873441;29;20048;-63
2023/08/07 02:31:48;;;;;;;6.93;3.22;;;14.80;99.90;;;;;;4874094;29;20048;-64
2023/08/07 02:34:14;;;;;;;6.75;3.20;;;14.80;99.90;;;;;;4874055;29;20057;-63
2023/08/07 02:36:40;;;;;;;6.03;3.78;;;14.80;99.90;;;;;;4874089;29;20053;-63
2023/08/07 02:39:06;;;;;;;7.10;3.75;;;14.70;99.90;;;;;;4874192;29;20053;-62
2023/08/07 02:41:32;;;;;;;7.45;3.83;;;14.60;99.90;;;;;;4874370;29;20080;-64
2023/08/07 02:43:57;;;;;;;10.18;4.55;;;14.60;99.90;;;;;;4872646;29;20092;-63
2023/08/07 02:46:23;;;;;;;7.05;3.88;;;14.50;99.90;;;;;;4890319;29;20057;-63
2023/08/07 02:48:49;;;;;;;7.65;4.20;;;14.40;99.90;;;;;;4892697;29;20048;-60
2023/08/07 02:51:14;;;;;;;5.63;3.50;;;14.40;99.90;;;;;;4892274;29;20079;-63
2023/08/07 02:53:40;;;;;;;7.68;3.95;;;14.30;99.90;;;;;;4892573;29;20107;-64
2023/08/07 02:56:06;;;;;;;7.95;3.92;;;14.20;99.90;;;;;;4875500;29;20056;-63
2023/08/07 02:58:31;;;;;;;5.43;3.75;;;14.20;99.90;;;;;;4891410;29;20442;-63
2023/08/07 03:01:04;;;;;;;7.00;3.88;;;14.20;99.90;;;;;;4892614;29;20358;-64
2023/08/07 03:03:29;;;;;;;6.80;4.20;;;14.20;99.90;;;;;;4892642;29;20056;-63
2023/08/07 03:05:55;;;;;;;7.18;3.90;;;14.10;99.90;;;;;;4892360;29;20404;-58
2023/08/07 03:08:21;;;;;;;9.20;4.38;;;14.10;99.90;;;;;;4892208;29;20048;-63
2023/08/07 03:10:55;;;;;;;9.77;4.55;;;14.00;99.90;;;;;;4892035;29;20045;-63
2023/08/07 03:13:22;;;;;;;10.10;4.93;;;14.00;99.90;;;;;;4891180;29;20059;-63
2023/08/07 03:15:49;;;;;;;6.82;4.25;;;14.00;99.90;;;;;;4892306;29;20047;-63
2023/08/07 03:18:18;;;;;;;11.07;4.57;;;14.20;99.90;;;;;;4892231;29;20084;-64
2023/08/07 03:20:44;;;;;;;9.43;4.63;;;14.00;99.90;;;;;;4892275;29;20040;-63
2023/08/07 03:23:10;;;;;;;8.95;4.10;;;14.00;99.90;;;;;;4892138;29;20047;-59
2023/08/07 03:25:36;;;;;;;8.50;4.50;;;14.10;99.90;;;;;;4892736;29;20049;-63
2023/08/07 03:28:01;;;;;;;7.63;4.30;;;14.10;99.90;;;;;;4892854;29;20120;-62
2023/08/07 03:30:27;;;;;;;8.93;4.90;;;14.10;99.90;;;;;;4895801;29;20036;-62
2023/08/07 03:32:52;;;;;;;8.25;4.45;;;14.10;99.90;;;;;;4895871;29;20476;-64
2023/08/07 03:35:18;;;;;;;9.48;4.35;;;14.10;99.90;;;;;;4895697;29;20060;-61
2023/08/07 03:37:44;;;;;;;9.32;4.30;;;14.10;99.90;;;;;;4895564;29;20056;-64
2023/08/07 03:40:10;;;;;;;9.13;4.75;;;14.10;99.90;;;;;;4895955;29;20597;-59
2023/08/07 03:42:35;;;;;;;11.32;4.72;;;14.20;99.90;;;;;;4896306;29;20551;-63
2023/08/07 03:45:01;;;;;;;7.82;4.22;;;14.20;99.90;;;;;;4894587;29;20100;-64
2023/08/07 03:47:27;;;;;;;13.50;5.07;;;14.20;99.90;;;;;;4895219;29;20052;-62
2023/08/07 03:49:52;;;;;;;12.52;4.57;;;14.20;99.90;;;;;;4895314;29;20519;-63
2023/08/07 03:52:18;;;;;;;9.65;4.80;;;14.20;99.90;;;;;;4895195;29;20149;-62
2023/08/07 03:54:44;;;;;;;8.80;4.22;;;14.20;99.90;;;;;;4895165;29;20051;-63
2023/08/07 03:57:10;;;;;;;13.77;4.32;;;14.20;99.90;;;;;;4895258;29;20052;-62
2023/08/07 03:59:36;;;;;;;9.18;3.95;;;14.20;99.90;;;;;;4895150;29;20076;-64
2023/08/07 04:02:02;;;;;;;8.10;3.75;;;14.20;99.90;;;;;;4895483;29;20080;-63
2023/08/07 04:04:28;;;;;;;6.15;3.70;;;14.20;99.90;;;;;;4894855;29;20181;-63
2023/08/07 04:06:53;;;;;;;12.45;4.05;;;14.20;99.90;;;;;;4895263;29;20044;-60
2023/08/07 04:09:19;;;;;;;9.77;3.95;;;14.20;99.90;;;;;;4895376;29;20055;-63
2023/08/07 04:11:45;;;;;;;10.90;3.83;;;14.20;99.90;;;;;;4894746;29;20449;-63
2023/08/07 04:14:11;;;;;;;10.95;3.72;;;14.30;99.90;;;;;;4892837;29;20049;-59
2023/08/07 04:16:37;;;;;;;11.05;3.55;;;14.20;99.90;;;;;;4895457;29;20117;-63
2023/08/07 04:19:03;;;;;;;11.35;3.80;;;14.20;99.90;;;;;;4894595;29;20044;-63
2023/08/07 04:21:30;;;;;;;8.23;3.80;;;14.30;99.90;;;;;;4894829;29;20040;-63
2023/08/07 04:23:55;;;;;;;10.57;3.90;;;14.30;99.90;;;;;;4894759;29;20060;-61
2023/08/07 04:26:21;;;;;;;10.10;3.83;;;14.20;99.90;;;;;;4894512;29;20825;-64
2023/08/07 04:28:46;;;;;;;11.55;4.20;;;14.30;99.90;;;;;;4893571;29;20040;-60
2023/08/07 04:31:12;;;;;;;9.05;3.50;;;14.20;99.90;;;;;;4894900;29;20104;-63
2023/08/07 04:33:38;;;;;;;12.68;3.60;;;14.40;99.90;;;;;;4894323;29;20721;-63
2023/08/07 04:36:04;;;;;;;11.98;3.88;;;14.40;99.90;;;;;;4893965;29;20048;-59
2023/08/07 04:38:30;;;;;;;9.38;3.53;;;14.40;99.90;;;;;;4894386;29;20045;-64
2023/08/07 04:40:55;;;;;;;8.27;3.17;;;14.40;99.90;;;;;;4894992;29;20442;-64
2023/08/07 04:43:21;;;;;;;8.88;3.45;;;14.50;99.90;;;;;;4893811;29;20132;-62
2023/08/07 04:45:47;;;;;;;7.93;3.03;;;14.50;99.90;;;;;;4894863;29;20147;-64
2023/08/07 04:48:13;;;;;;;10.02;3.17;;;14.60;99.90;;;;;;4894522;29;20045;-62
2023/08/07 04:50:39;;;;;;;14.70;3.20;;;14.60;99.90;;;;;;4894891;29;20059;-63
2023/08/07 04:53:05;;;;;;;14.77;4.07;;;14.60;99.90;;;;;;4894132;29;20488;-63
2023/08/07 04:55:31;;;;;;;12.88;3.58;;;14.60;99.90;;;;;;4893976;29;20464;-63
2023/08/07 04:57:57;;;;;;;14.23;3.40;;;14.50;99.90;;;;;;4893733;29;20100;-63
2023/08/07 05:00:24;;;;;;;16.38;4.25;;;14.60;99.90;;;;;;4893967;29;20083;-63
2023/08/07 05:02:49;;;;;;;15.10;3.80;;;14.60;99.90;;;;;;4894209;29;20056;-64
2023/08/07 05:05:15;;;;;;;14.68;4.18;;;14.60;99.90;;;;;;4894281;29;20051;-63
2023/08/07 05:07:42;;;;;;;12.00;3.88;;;14.60;99.90;;;;;;4894743;29;20052;-62
2023/08/07 05:10:09;;;;;;;13.82;4.80;;;14.60;99.90;;;;;;4894264;29;20405;-63
2023/08/07 05:12:35;;;;;;;12.27;3.78;;;14.70;99.90;;;;;;4893363;29;20058;-64
2023/08/07 05:15:01;;;;;;;14.48;4.38;;;14.60;99.90;;;;;;4894247;29;20404;-64
2023/08/07 05:17:27;;;;;;;16.17;4.63;;;14.70;99.90;;;;;;4893792;29;20060;-61
2023/08/07 05:19:52;;;;;;;16.60;3.85;;;14.70;99.90;;;;;;4894483;29;20048;-64
2023/08/07 05:22:18;;;;;;;16.17;4.10;;;14.80;99.90;;;;;;4894150;29;20088;-63
2023/08/07 05:24:45;;;;;;;22.42;4.60;;;14.80;99.90;;;;;;4893854;29;20151;-55
2023/08/07 05:27:11;;;;;;;13.93;4.00;;;14.80;99.90;;;;;;4893843;29;20049;-63
2023/08/07 05:29:43;;;;;;;14.05;3.67;;;14.90;99.90;;;;;;4893397;29;20044;-62
2023/08/07 05:32:12;;;;;;;12.75;4.05;;;14.90;99.90;;;;;;4893583;29;20461;-63
2023/08/07 05:34:38;;;;;;;16.05;3.50;;;14.90;99.90;;;;;;4893082;29;20074;-61
2023/08/07 05:37:04;;;;;;;9.85;3.33;;;14.90;99.90;;;;;;4893094;29;20049;-62
2023/08/07 05:39:30;;;;;;;15.70;3.55;;;14.90;99.90;;;;;;4892316;29;20127;-61
2023/08/07 05:41:57;;;;;;;15.50;3.85;;;15.20;99.90;;;;;;4885837;29;20535;-63
2023/08/07 05:44:23;;;;;;;10.50;3.38;;;15.00;99.90;;;;;;4884772;29;20048;-62
2023/08/07 05:46:49;;;;;;;13.40;3.72;;;15.00;99.90;;;;;;4893946;29;20377;-63
2023/08/07 05:49:15;;;;;;;10.60;3.90;;;15.00;99.90;;;;;;4893417;29;20054;-63
2023/08/07 05:51:41;;;;;;;15.95;4.70;;;15.10;99.90;;;;;;4893135;29;20048;-64
2023/08/07 05:54:06;;;;;;;17.63;4.40;;;15.10;99.90;;;;;;4893657;29;20128;-63
2023/08/07 05:56:32;;;;;;;14.77;3.72;;;15.20;99.90;;;;;;4892970;29;20044;-63
2023/08/07 05:58:57;;;;;;;16.77;4.22;;;15.20;99.90;;;;;;4892568;29;20045;-63
2023/08/07 06:01:29;;;;;;;18.05;4.43;;;15.20;99.90;;;;;;4893167;29;20380;-64
2023/08/07 06:03:54;;;;;;;16.92;4.43;;;15.20;99.90;;;;;;4892690;29;20112;-62
2023/08/07 06:06:20;;;;;;;18.98;3.85;;;15.30;99.90;;;;;;4892004;29;20041;-62
2023/08/07 06:08:46;;;;;;;12.88;3.67;;;15.30;99.90;;;;;;4893170;29;20465;-57
2023/08/07 06:11:12;;;;;;;17.08;4.38;;;15.40;99.90;;;;;;4893573;29;20100;-64
2023/08/07 06:13:37;;;;;;;15.48;4.28;;;15.40;99.90;;;;;;4891780;29;20059;-64
2023/08/07 06:16:03;;;;;;;13.30;4.13;;;15.60;99.90;;;;;;4893259;29;20099;-60
2023/08/07 06:18:30;;;;;;;19.92;4.18;;;16.20;99.90;;;;;;4892934;29;20128;-60
2023/08/07 06:20:56;;;;;;;15.60;4.13;;;16.60;99.90;;;;;;4892576;29;20065;-63
2023/08/07 06:23:21;;;;;;;14.63;3.78;;;16.60;99.90;;;;;;4892819;29;20090;-60
2023/08/07 06:25:47;;;;;;;16.08;4.07;;;16.40;99.90;;;;;;4893205;29;20072;-64
2023/08/07 06:28:13;;;;;;;13.05;3.67;;;16.20;99.90;;;;;;4890214;29;20052;-61
2023/08/07 06:30:38;;;;;;;13.77;4.00;;;16.10;99.90;;;;;;4875716;29;20045;-63
2023/08/07 06:33:04;;;;;;;14.02;3.60;;;15.80;99.90;;;;;;4882131;29;20044;-63
2023/08/07 06:35:30;;;;;;;20.55;3.53;;;15.60;99.90;;;;;;4882878;29;20068;-59
2023/08/07 06:37:55;;;;;;;12.55;3.45;;;15.40;99.90;;;;;;4883736;29;20056;-63
2023/08/07 06:40:21;;;;;;;15.75;3.45;;;15.30;99.90;;;;;;4880902;29;20561;-63
2023/08/07 06:42:46;;;;;;;11.25;4.00;;;15.30;99.90;;;;;;4891316;29;20496;-64
2023/08/07 06:45:12;;;;;;;12.52;3.05;;;15.30;99.90;;;;;;4883925;29;20041;-64
2023/08/07 06:47:38;;;;;;;13.45;3.92;;;15.30;99.90;;;;;;4892542;29;20060;-65
2023/08/07 06:50:04;;;;;;;11.82;3.88;;;15.50;99.90;;;;;;4892577;29;20043;-65
2023/08/07 06:52:29;;;;;;;15.85;4.18;;;15.40;99.90;;;;;;4891226;29;20456;-62
2023/08/07 06:54:55;;;;;;;13.50;3.72;;;15.40;99.90;;;;;;4892537;29;20395;-63
2023/08/07 06:57:21;;;;;;;11.02;3.15;;;15.80;99.90;;;;;;4891008;29;20078;-61
2023/08/07 06:59:46;;;;;;;13.48;3.92;;;16.60;99.90;;;;;;4892159;29;20052;-64
2023/08/07 07:02:13;;;;;;;12.60;3.33;;;17.50;99.90;;;;;;4892181;29;20055;-66
2023/08/07 07:04:38;;;;;;;12.90;3.25;;;18.20;99.90;;;;;;4892930;29;20499;-62
2023/08/07 07:07:04;;;;;;;14.32;3.20;;;18.50;99.90;;;;;;4892642;29;20056;-63
2023/08/07 07:09:30;;;;;;;13.18;3.38;;;18.10;99.90;;;;;;4892398;29;20036;-59
2023/08/07 07:11:56;;;;;;;12.75;2.97;;;17.50;99.90;;;;;;4891701;29;20449;-63
2023/08/07 07:14:22;;;;;;;14.20;3.90;;;17.00;99.90;;;;;;4891602;29;20071;-63
2023/08/07 07:16:48;;;;;;;11.38;2.78;;;16.60;99.90;;;;;;4892707;29;20104;-64
2023/08/07 07:19:13;;;;;;;9.40;2.90;;;16.40;99.90;;;;;;4891662;29;20053;-64
2023/08/07 07:21:39;;;;;;;15.15;3.17;;;16.30;99.90;;;;;;4891932;29;20139;-58
2023/08/07 07:24:06;;;;;;;11.20;3.25;;;16.30;99.90;;;;;;4892211;29;20071;-63
2023/08/07 07:26:31;;;;;;;12.15;2.90;;;16.40;99.90;;;;;;4892007;29;20135;-60
2023/08/07 07:28:57;;;;;;;12.80;3.58;;;16.30;99.90;;;;;;4891661;29;20129;-64
2023/08/07 07:31:23;;;;;;;12.63;3.10;;;16.20;99.90;;;;;;4892071;29;20053;-63
2023/08/07 07:33:48;;;;;;;12.15;3.53;;;16.00;99.90;;;;;;4892129;29;20053;-62
2023/08/07 07:36:18;;;;;;;10.77;3.65;;;15.80;99.90;;;;;;4891638;29;20116;-64
2023/08/07 07:38:47;;;;;;;8.60;2.97;;;15.60;99.90;;;;;;4892128;29;20143;-64
2023/08/07 07:41:17;;;;;;;10.75;3.13;;;15.50;99.90;;;;;;4892156;29;20053;-64
2023/08/07 07:43:43;;;;;;;12.18;3.45;;;15.70;99.90;;;;;;4890833;29;20040;-63
2023/08/07 07:46:08;;;;;;;12.68;3.10;;;16.40;99.90;;;;;;4892088;29;20045;-63
2023/08/07 07:48:34;;;;;;;11.32;3.03;;;17.30;99.90;;;;;;4892263;29;20162;-59
2023/08/07 07:51:02;;;;;;;14.73;3.20;;;17.60;99.90;;;;;;4891506;29;20067;-63
2023/08/07 07:53:28;;;;;;;15.93;3.03;;;17.40;99.90;;;;;;4892032;29;20060;-64
2023/08/07 07:55:54;;;;;;;13.32;3.20;;;17.30;99.90;;;;;;4886880;29;20768;-63
2023/08/07 07:58:21;;;;;;;11.40;3.00;;;17.30;99.90;;;;;;4891224;29;20092;-62
2023/08/07 08:00:47;;;;;;;7.85;2.63;;;17.70;99.90;;;;;;4892311;29;20509;-63
2023/08/07 08:03:12;;;;;;;7.65;2.50;;;18.20;99.90;;;;;;4882574;29;20060;-64
2023/08/07 08:05:39;;;;;;;11.52;2.92;;;18.70;99.90;;;;;;4891203;29;20045;-60
2023/08/07 08:08:07;;;;;;;9.85;2.83;;;18.70;99.90;;;;;;4905279;29;20061;-64
2023/08/07 08:10:32;;;;;;;9.13;3.00;;;18.40;99.90;;;;;;4891151;29;20057;-59
2023/08/07 08:12:58;;;;;;;8.40;2.60;;;18.10;99.90;;;;;;4890139;29;20056;-61
2023/08/07 08:15:24;;;;;;;10.23;2.58;;;17.90;99.90;;;;;;4892764;29;20515;-61
2023/08/07 08:17:49;;;;;;;10.15;2.38;;;17.60;99.90;;;;;;4894839;29;20048;-64
2023/08/07 08:20:17;;;;;;;8.68;2.97;;;17.40;99.90;;;;;;4894465;29;20040;-62
2023/08/07 08:22:42;;;;;;;9.23;2.90;;;17.30;99.90;;;;;;4893918;29;20439;-64
2023/08/07 08:25:09;;;;;;;14.98;3.05;;;17.30;99.90;;;;;;4892670;29;20037;-64
2023/08/07 08:27:35;;;;;;;10.07;2.47;;;17.30;99.90;;;;;;4891442;29;20059;-62
2023/08/07 08:30:02;;;;;;;9.15;2.40;;;17.30;99.90;;;;;;4893254;29;20044;-63
2023/08/07 08:32:28;;;;;;;8.32;2.40;;;17.20;99.90;;;;;;4892605;29;20044;-63
2023/08/07 08:34:54;;;;;;;12.85;3.08;;;17.10;99.90;;;;;;4893110;29;20063;-64
2023/08/07 08:37:20;;;;;;;15.85;3.00;;;17.00;99.90;;;;;;4893929;29;20048;-64
2023/08/07 08:39:45;;;;;;;8.23;2.80;;;16.90;99.90;;;;;;4893457;29;20048;-63
2023/08/07 08:42:13;;;;;;;9.60;2.95;;;17.00;99.90;;;;;;4893070;29;20052;-59
2023/08/07 08:44:40;;;;;;;8.50;2.70;;;17.40;99.90;;;;;;4893908;29;20103;-63
2023/08/07 08:47:07;;;;;;;9.77;2.70;;;17.80;99.90;;;;;;4892706;29;20048;-61
2023/08/07 08:49:43;;;;;;;8.77;2.55;;;18.10;99.90;;;;;;4893459;29;20041;-64
2023/08/07 08:52:09;;;;;;;9.52;2.70;;;18.40;99.90;;;;;;4892436;29;20049;-62
2023/08/07 08:54:36;;;;;;;9.63;2.70;;;18.60;99.90;;;;;;4891977;29;20432;-62
2023/08/07 08:57:02;;;;;;;9.98;2.80;;;18.80;99.90;;;;;;4892503;29;20103;-64
2023/08/07 08:59:28;;;;;;;9.88;2.60;;;18.70;99.90;;;;;;4893561;29;20048;-63
2023/08/07 09:01:54;;;;;;;9.88;2.65;;;18.50;99.90;;;;;;4893867;29;20045;-63
2023/08/07 09:04:20;;;;;;;11.63;2.80;;;18.20;99.90;;;;;;4893256;29;21049;-64
2023/08/07 09:06:47;;;;;;;9.90;2.25;;;18.10;99.90;;;;;;4893321;29;20099;-63
2023/08/07 09:09:14;;;;;;;8.68;2.70;;;18.30;99.90;;;;;;4893266;29;20475;-63
2023/08/07 09:11:41;;;;;;;7.57;2.75;;;18.70;99.90;;;;;;4893266;29;20044;-59
2023/08/07 09:14:09;;;;;;;10.77;3.00;;;18.60;99.90;;;;;;4892600;29;20051;-62
2023/08/07 09:16:36;;;;;;;17.23;3.08;;;18.40;99.90;;;;;;4893546;29;20052;-63
2023/08/07 09:19:02;;;;;;;11.23;3.03;;;18.10;99.90;;;;;;4893180;29;20055;-63
2023/08/07 09:21:28;;;;;;;9.85;3.03;;;18.10;99.90;;;;;;4893825;29;20412;-60
2023/08/07 09:23:54;;;;;;;13.77;3.65;;;18.20;99.90;;;;;;4893144;29;20058;-64
2023/08/07 09:26:24;;;;;;;12.98;3.05;;;18.50;99.90;;;;;;4892242;29;20048;-63
2023/08/07 09:28:54;;;;;;;12.07;3.13;;;18.70;99.90;;;;;;4892785;29;20458;-64
2023/08/07 09:31:21;;;;;;;15.35;3.35;;;18.60;99.90;;;;;;4893095;29;20091;-63
2023/08/07 09:33:51;;;;;;;10.60;3.25;;;18.30;99.90;;;;;;4893329;29;20056;-64
2023/08/07 09:36:17;;;;;;;11.27;3.35;;;17.80;99.90;;;;;;4892727;29;20117;-64
2023/08/07 09:38:49;;;;;;;18.58;3.97;;;17.40;99.90;;;;;;4893240;29;20048;-63
2023/08/07 09:41:18;;;;;;;10.40;3.20;;;17.00;99.90;;;;;;4892921;29;20052;-63
2023/08/07 09:43:43;;;;;;;12.15;3.42;;;16.90;99.90;;;;;;4891849;29;20055;-63
2023/08/07 09:46:09;;;;;;;9.50;3.10;;;16.90;99.90;;;;;;4893417;29;20045;-65
2023/08/07 09:48:42;;;;;;;11.15;3.03;;;17.00;99.90;;;;;;4893506;29;20124;-64
2023/08/07 09:51:08;;;;;;;9.63;3.20;;;17.10;99.90;;;;;;4890973;29;20087;-63
2023/08/07 09:53:34;;;;;;;9.52;2.53;;;17.10;99.90;;;;;;4907670;29;20421;-64
2023/08/07 09:56:00;;;;;;;10.88;2.90;;;17.40;99.90;;;;;;4892929;29;20064;-64
2023/08/07 09:58:26;;;;;;;9.77;2.95;;;17.80;99.90;;;;;;4892082;29;20044;-63
2023/08/07 10:00:59;;;;;;;8.57;2.60;;;18.20;99.90;;;;;;4890382;29;20037;-63
2023/08/07 10:03:28;;;;;;;12.90;2.95;;;18.40;99.90;;;;;;4893046;29;20052;-57
2023/08/07 10:05:54;;;;;;;10.55;2.75;;;18.40;99.90;;;;;;4893522;29;20194;-64
2023/08/07 10:08:21;;;;;;;12.88;3.17;;;18.40;99.90;;;;;;4892367;29;20057;-58
2023/08/07 10:10:47;;;;;;;7.57;2.10;;;18.60;99.90;;;;;;4891528;29;20084;-64
2023/08/07 10:13:13;;;;;;;8.18;2.30;;;18.80;99.90;;;;;;4891802;29;20136;-63
2023/08/07 10:15:41;;;;;;;10.38;2.60;;;19.10;99.70;;;;;;4892414;29;20492;-64
2023/08/07 10:18:08;;;;;;;7.85;2.13;;;19.30;98.30;;;;;;4886866;29;20053;-63
2023/08/07 10:20:34;;;;;;;7.53;2.13;;;19.20;97.10;;;;;;4887587;29;20051;-60
2023/08/07 10:23:07;;;;;;;8.80;2.15;;;19.00;96.80;;;;;;4892605;29;20041;-60
2023/08/07 10:25:37;;;;;;;11.80;2.92;;;18.80;96.80;;;;;;4892671;29;20362;-63
2023/08/07 10:28:05;;;;;;;11.05;2.55;;;18.50;97.00;;;;;;4891135;29;20151;-63
2023/08/07 10:30:33;;;;;;;9.45;2.40;;;18.20;97.80;;;;;;4892929;29;20040;-62
2023/08/07 10:32:59;;;;;;;11.40;2.42;;;18.00;98.50;;;;;;4891292;29;20049;-63
2023/08/07 10:35:33;;;;;;;12.05;3.25;;;17.80;99.20;;;;;;4892494;29;20060;-60
2023/08/07 10:38:11;;;;;;;13.57;2.70;;;17.60;99.80;;;;;;4892009;29;20108;-63
2023/08/07 10:41:01;;;;;;;11.52;2.40;;;17.60;99.90;;;;;;4892331;29;20620;-63
2023/08/07 10:43:27;;;;;;;8.15;2.10;;;17.80;99.90;;;;;;4893681;29;20063;-62
2023/08/07 10:45:54;;;;;;;9.07;2.60;;;17.90;99.70;;;;;;4892679;29;20054;-64
2023/08/07 10:48:21;;;;;;;10.10;2.47;;;17.90;99.90;;;;;;4891966;29;20406;-63
2023/08/07 10:51:03;;;;;;;9.15;2.40;;;17.90;99.50;;;;;;4892473;29;20052;-63
2023/08/07 10:53:32;;;;;;;11.18;2.50;;;17.90;99.00;;;;;;4891808;29;20052;-61
2023/08/07 10:56:07;;;;;;;16.38;2.75;;;17.80;99.20;;;;;;4891613;29;20051;-63
2023/08/07 10:58:40;;;;;;;13.02;3.47;;;17.70;99.60;;;;;;4891067;29;20670;-61
2023/08/07 11:01:30;;;;;;;14.68;3.20;;;17.60;99.90;;;;;;4892152;29;20044;-63
2023/08/07 11:03:58;;;;;;;11.95;3.03;;;17.70;99.90;;;;;;4891342;29;20052;-62
2023/08/07 11:06:26;;;;;;;11.05;2.60;;;17.60;99.90;;;;;;4890682;29;20048;-63
2023/08/07 11:08:52;;;;;;;15.18;2.90;;;17.50;99.90;;;;;;4892139;29;20040;-63
2023/08/07 11:11:17;;;;;;;10.90;2.95;;;17.40;99.90;;;;;;4892327;29;20456;-62
2023/08/07 11:13:43;;;;;;;9.30;3.20;;;17.30;99.90;;;;;;4890809;29;20048;-63
2023/08/07 11:16:09;;;;;;;13.23;2.83;;;17.40;99.90;;;;;;4904183;29;20128;-63
2023/08/07 11:18:35;;;;;;;11.00;2.75;;;17.60;99.90;;;;;;4874010;29;20078;-62
2023/08/07 11:21:01;;;;;;;10.48;3.08;;;18.00;99.90;;;;;;4891268;29;20044;-62
2023/08/07 11:23:28;;;;;;;11.73;2.70;;;18.40;99.90;;;;;;4877472;29;20507;-62
2023/08/07 11:25:55;;;;;;;11.07;2.65;;;18.80;99.90;;;;;;4880305;29;20086;-62
2023/08/07 11:28:22;;;;;;;7.65;2.10;;;19.20;99.90;;;;;;4872705;29;20482;-61
2023/08/07 11:30:53;;;;;;;4.40;1.70;;;19.30;97.80;;;;;;4873568;29;20373;-62
2023/08/07 11:33:19;;;;;;;10.00;1.90;;;19.40;96.90;;;;;;4873685;29;20404;-61
2023/08/07 11:35:46;;;;;;;9.93;2.10;;;19.50;96.00;;;;;;4872883;29;20057;-60
2023/08/07 11:38:12;;;;;;;8.50;1.90;;;19.50;94.70;;;;;;4880911;29;20064;-62
2023/08/07 11:40:38;;;;;;;6.45;2.10;;;19.50;95.40;;;;;;4891836;29;20044;-61
2023/08/07 11:43:03;;;;;;;7.55;2.13;;;19.40;95.50;;;;;;4891338;29;20496;-62
2023/08/07 11:45:29;;;;;;;9.85;2.28;;;19.30;95.60;;;;;;4891608;29;20440;-56
2023/08/07 11:47:56;;;;;;;6.95;2.17;;;19.10;95.90;;;;;;4892257;29;20083;-61
2023/08/07 11:50:27;;;;;;;7.88;2.30;;;18.80;97.00;;;;;;4895245;29;20136;-61
2023/08/07 11:52:53;;;;;;;10.23;2.70;;;18.50;97.90;;;;;;4886850;29;20057;-61
2023/08/07 11:55:19;;;;;;;7.30;2.67;;;18.30;98.90;;;;;;4883124;29;20048;-62
2023/08/07 11:57:47;;;;;;;11.48;2.78;;;18.30;99.30;;;;;;4890875;29;20041;-62
2023/08/07 12:00:14;;;;;;;7.10;2.50;;;18.40;99.50;;;;;;4890563;29;20052;-62
2023/08/07 12:02:46;;;;;;;10.23;2.60;;;18.40;99.60;;;;;;4889034;29;20052;-61
2023/08/07 12:05:12;;;;;;;12.30;3.05;;;18.30;99.60;;;;;;4887082;29;20047;-62
2023/08/07 12:07:39;;;;;;;8.10;2.35;;;18.40;99.90;;;;;;4891760;29;20488;-61
2023/08/07 12:10:11;;;;;;;11.02;2.72;;;18.40;99.50;;;;;;4885945;29;20051;-62
2023/08/07 12:12:37;;;;;;;9.23;2.40;;;18.40;99.70;;;;;;4894339;29;20052;-61
2023/08/07 12:15:07;;;;;;;7.40;2.20;;;18.40;99.80;;;;;;4894551;29;20412;-61
2023/08/07 12:17:33;;;;;;;9.20;2.42;;;18.40;99.50;;;;;;4882486;29;20375;-61
2023/08/07 12:19:59;;;;;;;7.53;2.10;;;18.40;99.60;;;;;;4895248;29;20051;-61
2023/08/07 12:22:28;;;;;;;9.48;1.83;;;18.40;99.80;;;;;;4895138;29;20041;-58
2023/08/07 12:24:54;;;;;;;6.70;2.20;;;18.50;99.90;;;;;;4894557;29;20053;-56
2023/08/07 12:27:19;;;;;;;5.82;1.88;;;18.50;99.70;;;;;;4894589;29;20381;-61
2023/08/07 12:29:45;;;;;;;8.40;2.00;;;18.80;99.90;;;;;;4894810;29;20056;-61
2023/08/07 12:32:11;;;;;;;7.05;1.67;;;18.90;98.80;;;;;;4894226;29;20049;-61
2023/08/07 12:34:37;;;;;;;8.50;2.00;;;18.90;98.90;;;;;;4894108;29;20103;-62
2023/08/07 12:37:04;;;;;;;8.90;1.75;;;18.80;98.90;;;;;;4893326;29;20071;-60
2023/08/07 12:39:30;;;;;;;8.00;2.10;;;18.50;99.90;;;;;;4894213;29;20044;-60
2023/08/07 12:41:55;;;;;;;4.75;1.83;;;18.20;99.90;;;;;;4893829;29;20500;-59